sensor_id;sensor_type;location;lat;lon;timestamp;P1;durP1;ratioP1;P2;durP2;ratioP2
819;SDS011;392;48.838;2.322;2023-05-10T00:01:18;4.83;;;2.93;;
819;SDS011;392;48.838;2.322;2023-05-10T00:03:46;4.27;;;2.00;;
819;SDS011;392;48.838;2.322;2023-05-10T00:06:14;4.43;;;2.13;;
819;SDS011;392;48.838;2.322;2023-05-10T00:08:41;2.90;;;2.00;;
819;SDS011;392;48.838;2.322;2023-05-10T00:11:08;3.43;;;2.10;;
819;SDS011;392;48.838;2.322;2023-05-10T00:13:36;2.50;;;1.77;;
819;SDS011;392;48.838;2.322;2023-05-10T00:16:03;2.70;;;1.90;;
819;SDS011;392;48.838;2.322;2023-05-10T00:18:31;3.13;;;1.80;;
819;SDS011;392;48.838;2.322;2023-05-10T00:21:00;2.40;;;1.90;;
819;SDS011;392;48.838;2.322;2023-05-10T00:23:27;3.03;;;1.83;;
819;SDS011;392;48.838;2.322;2023-05-10T00:25:55;2.13;;;1.60;;
819;SDS011;392;48.838;2.322;2023-05-10T00:28:23;2.00;;;1.90;;
819;SDS011;392;48.838;2.322;2023-05-10T00:30:50;2.13;;;1.67;;
819;SDS011;392;48.838;2.322;2023-05-10T00:33:17;2.70;;;1.63;;
819;SDS011;392;48.838;2.322;2023-05-10T00:35:45;2.77;;;2.10;;
819;SDS011;392;48.838;2.322;2023-05-10T00:38:13;2.03;;;1.70;;
819;SDS011;392;48.838;2.322;2023-05-10T00:40:40;3.07;;;1.77;;
819;SDS011;392;48.838;2.322;2023-05-10T00:43:15;2.53;;;1.70;;
819;SDS011;392;48.838;2.322;2023-05-10T00:45:42;1.90;;;1.47;;
819;SDS011;392;48.838;2.322;2023-05-10T00:48:10;2.50;;;1.97;;
819;SDS011;392;48.838;2.322;2023-05-10T00:50:38;2.90;;;1.80;;
819;SDS011;392;48.838;2.322;2023-05-10T00:53:05;4.20;;;1.73;;
819;SDS011;392;48.838;2.322;2023-05-10T00:55:35;1.60;;;1.50;;
819;SDS011;392;48.838;2.322;2023-05-10T00:58:03;2.50;;;1.40;;
819;SDS011;392;48.838;2.322;2023-05-10T01:00:31;3.27;;;1.50;;
819;SDS011;392;48.838;2.322;2023-05-10T01:03:00;2.07;;;1.63;;
819;SDS011;392;48.838;2.322;2023-05-10T01:05:27;2.07;;;1.50;;
819;SDS011;392;48.838;2.322;2023-05-10T01:07:56;1.73;;;1.50;;
819;SDS011;392;48.838;2.322;2023-05-10T01:10:24;2.30;;;1.47;;
819;SDS011;392;48.838;2.322;2023-05-10T01:12:53;1.80;;;1.50;;
819;SDS011;392;48.838;2.322;2023-05-10T01:15:21;1.33;;;1.23;;
819;SDS011;392;48.838;2.322;2023-05-10T01:17:49;3.20;;;1.63;;
819;SDS011;392;48.838;2.322;2023-05-10T01:20:16;1.20;;;1.20;;
819;SDS011;392;48.838;2.322;2023-05-10T01:22:51;1.20;;;1.10;;
819;SDS011;392;48.838;2.322;2023-05-10T01:25:45;2.30;;;1.40;;
819;SDS011;392;48.838;2.322;2023-05-10T01:29:02;1.20;;;1.10;;
819;SDS011;392;48.838;2.322;2023-05-10T01:32:09;1.97;;;1.30;;
819;SDS011;392;48.838;2.322;2023-05-10T01:34:52;2.00;;;1.40;;
819;SDS011;392;48.838;2.322;2023-05-10T01:37:28;1.33;;;1.20;;
819;SDS011;392;48.838;2.322;2023-05-10T01:40:07;2.03;;;1.70;;
819;SDS011;392;48.838;2.322;2023-05-10T01:42:44;4.20;;;1.53;;
819;SDS011;392;48.838;2.322;2023-05-10T01:45:20;1.33;;;1.07;;
819;SDS011;392;48.838;2.322;2023-05-10T01:47:58;1.37;;;1.27;;
819;SDS011;392;48.838;2.322;2023-05-10T01:50:32;1.47;;;1.20;;
819;SDS011;392;48.838;2.322;2023-05-10T01:53:06;1.63;;;1.27;;
819;SDS011;392;48.838;2.322;2023-05-10T01:55:39;2.97;;;1.60;;
819;SDS011;392;48.838;2.322;2023-05-10T01:58:13;1.90;;;1.10;;
819;SDS011;392;48.838;2.322;2023-05-10T02:00:46;1.53;;;1.10;;
819;SDS011;392;48.838;2.322;2023-05-10T02:03:20;1.20;;;1.00;;
819;SDS011;392;48.838;2.322;2023-05-10T02:05:50;1.73;;;1.20;;
819;SDS011;392;48.838;2.322;2023-05-10T02:08:21;2.90;;;1.10;;
819;SDS011;392;48.838;2.322;2023-05-10T02:10:50;1.03;;;0.93;;
819;SDS011;392;48.838;2.322;2023-05-10T02:13:21;2.33;;;1.10;;
819;SDS011;392;48.838;2.322;2023-05-10T02:15:51;1.47;;;1.03;;
819;SDS011;392;48.838;2.322;2023-05-10T02:18:21;0.90;;;0.90;;
819;SDS011;392;48.838;2.322;2023-05-10T02:20:50;1.40;;;0.97;;
819;SDS011;392;48.838;2.322;2023-05-10T02:23:20;2.40;;;1.37;;
819;SDS011;392;48.838;2.322;2023-05-10T02:25:48;2.70;;;0.97;;
819;SDS011;392;48.838;2.322;2023-05-10T02:28:20;1.07;;;0.80;;
819;SDS011;392;48.838;2.322;2023-05-10T02:30:49;0.90;;;0.83;;
819;SDS011;392;48.838;2.322;2023-05-10T02:33:17;0.90;;;0.90;;
819;SDS011;392;48.838;2.322;2023-05-10T02:35:47;0.90;;;0.90;;
819;SDS011;392;48.838;2.322;2023-05-10T02:38:16;1.50;;;1.07;;
819;SDS011;392;48.838;2.322;2023-05-10T02:40:47;1.77;;;1.17;;
819;SDS011;392;48.838;2.322;2023-05-10T02:43:15;1.07;;;1.00;;
819;SDS011;392;48.838;2.322;2023-05-10T02:45:45;1.43;;;1.10;;
819;SDS011;392;48.838;2.322;2023-05-10T02:48:14;0.90;;;0.90;;
819;SDS011;392;48.838;2.322;2023-05-10T02:50:44;1.00;;;1.00;;
819;SDS011;392;48.838;2.322;2023-05-10T02:53:18;1.10;;;1.00;;
819;SDS011;392;48.838;2.322;2023-05-10T02:55:50;1.43;;;1.10;;
819;SDS011;392;48.838;2.322;2023-05-10T02:58:19;1.43;;;1.00;;
819;SDS011;392;48.838;2.322;2023-05-10T03:00:47;1.80;;;1.20;;
819;SDS011;392;48.838;2.322;2023-05-10T03:03:14;1.33;;;1.20;;
819;SDS011;392;48.838;2.322;2023-05-10T03:05:41;1.90;;;1.20;;
819;SDS011;392;48.838;2.322;2023-05-10T03:08:10;1.40;;;1.00;;
819;SDS011;392;48.838;2.322;2023-05-10T03:10:41;1.30;;;1.30;;
819;SDS011;392;48.838;2.322;2023-05-10T03:13:25;2.43;;;1.53;;
819;SDS011;392;48.838;2.322;2023-05-10T03:16:04;4.20;;;1.20;;
819;SDS011;392;48.838;2.322;2023-05-10T03:18:38;1.63;;;1.20;;
819;SDS011;392;48.838;2.322;2023-05-10T03:21:12;1.80;;;1.33;;
819;SDS011;392;48.838;2.322;2023-05-10T03:23:44;1.23;;;0.90;;
819;SDS011;392;48.838;2.322;2023-05-10T03:26:17;1.20;;;1.10;;
819;SDS011;392;48.838;2.322;2023-05-10T03:28:57;2.03;;;1.40;;
819;SDS011;392;48.838;2.322;2023-05-10T03:31:25;1.37;;;1.27;;
819;SDS011;392;48.838;2.322;2023-05-10T03:33:53;1.97;;;1.10;;
819;SDS011;392;48.838;2.322;2023-05-10T03:36:26;1.20;;;1.10;;
819;SDS011;392;48.838;2.322;2023-05-10T03:38:54;1.20;;;1.10;;
819;SDS011;392;48.838;2.322;2023-05-10T03:41:21;1.37;;;1.37;;
819;SDS011;392;48.838;2.322;2023-05-10T03:43:49;1.53;;;1.10;;
819;SDS011;392;48.838;2.322;2023-05-10T03:46:16;2.40;;;1.40;;
819;SDS011;392;48.838;2.322;2023-05-10T03:48:44;1.20;;;1.10;;
819;SDS011;392;48.838;2.322;2023-05-10T03:51:11;1.90;;;1.50;;
819;SDS011;392;48.838;2.322;2023-05-10T03:53:40;1.73;;;1.40;;
819;SDS011;392;48.838;2.322;2023-05-10T03:56:07;1.50;;;1.40;;
819;SDS011;392;48.838;2.322;2023-05-10T03:58:35;1.60;;;1.50;;
819;SDS011;392;48.838;2.322;2023-05-10T04:01:02;1.60;;;1.50;;
819;SDS011;392;48.838;2.322;2023-05-10T04:03:30;1.43;;;1.40;;
819;SDS011;392;48.838;2.322;2023-05-10T04:06:00;1.40;;;1.30;;
819;SDS011;392;48.838;2.322;2023-05-10T04:08:28;1.70;;;1.30;;
819;SDS011;392;48.838;2.322;2023-05-10T04:11:05;1.40;;;1.40;;
819;SDS011;392;48.838;2.322;2023-05-10T04:13:33;1.83;;;1.50;;
819;SDS011;392;48.838;2.322;2023-05-10T04:16:01;2.00;;;1.30;;
819;SDS011;392;48.838;2.322;2023-05-10T04:18:28;2.17;;;1.13;;
819;SDS011;392;48.838;2.322;2023-05-10T04:20:57;1.37;;;1.37;;
819;SDS011;392;48.838;2.322;2023-05-10T04:23:24;1.37;;;1.37;;
819;SDS011;392;48.838;2.322;2023-05-10T04:25:52;2.20;;;1.30;;
819;SDS011;392;48.838;2.322;2023-05-10T04:28:20;1.50;;;1.40;;
819;SDS011;392;48.838;2.322;2023-05-10T04:30:48;1.50;;;1.40;;
819;SDS011;392;48.838;2.322;2023-05-10T04:33:15;1.43;;;1.37;;
819;SDS011;392;48.838;2.322;2023-05-10T04:35:42;1.50;;;1.40;;
819;SDS011;392;48.838;2.322;2023-05-10T04:38:10;2.60;;;1.40;;
819;SDS011;392;48.838;2.322;2023-05-10T04:40:37;1.70;;;1.60;;
819;SDS011;392;48.838;2.322;2023-05-10T04:43:04;2.30;;;1.70;;
819;SDS011;392;48.838;2.322;2023-05-10T04:45:33;1.80;;;1.70;;
819;SDS011;392;48.838;2.322;2023-05-10T04:48:00;2.20;;;1.40;;
819;SDS011;392;48.838;2.322;2023-05-10T04:50:28;1.40;;;1.33;;
819;SDS011;392;48.838;2.322;2023-05-10T04:52:55;1.60;;;1.50;;
819;SDS011;392;48.838;2.322;2023-05-10T04:55:22;1.80;;;1.77;;
819;SDS011;392;48.838;2.322;2023-05-10T04:57:49;1.77;;;1.67;;
819;SDS011;392;48.838;2.322;2023-05-10T05:00:17;1.70;;;1.60;;
819;SDS011;392;48.838;2.322;2023-05-10T05:02:47;1.57;;;1.47;;
819;SDS011;392;48.838;2.322;2023-05-10T05:05:14;1.70;;;1.60;;
819;SDS011;392;48.838;2.322;2023-05-10T05:07:42;2.57;;;1.70;;
819;SDS011;392;48.838;2.322;2023-05-10T05:10:09;1.40;;;1.40;;
819;SDS011;392;48.838;2.322;2023-05-10T05:12:36;1.70;;;1.60;;
819;SDS011;392;48.838;2.322;2023-05-10T05:15:04;1.87;;;1.77;;
819;SDS011;392;48.838;2.322;2023-05-10T05:17:34;1.80;;;1.70;;
819;SDS011;392;48.838;2.322;2023-05-10T05:20:03;2.30;;;2.20;;
819;SDS011;392;48.838;2.322;2023-05-10T05:22:32;2.87;;;2.33;;
819;SDS011;392;48.838;2.322;2023-05-10T05:24:59;2.13;;;1.83;;
819;SDS011;392;48.838;2.322;2023-05-10T05:27:27;2.17;;;1.97;;
819;SDS011;392;48.838;2.322;2023-05-10T05:29:55;2.07;;;1.97;;
819;SDS011;392;48.838;2.322;2023-05-10T05:32:22;1.80;;;1.70;;
819;SDS011;392;48.838;2.322;2023-05-10T05:34:50;2.70;;;2.20;;
819;SDS011;392;48.838;2.322;2023-05-10T05:37:20;2.97;;;2.73;;
819;SDS011;392;48.838;2.322;2023-05-10T05:39:48;2.30;;;2.20;;
819;SDS011;392;48.838;2.322;2023-05-10T05:42:15;2.40;;;2.23;;
819;SDS011;392;48.838;2.322;2023-05-10T05:44:44;2.83;;;2.53;;
819;SDS011;392;48.838;2.322;2023-05-10T05:47:11;2.97;;;2.73;;
819;SDS011;392;48.838;2.322;2023-05-10T05:49:38;3.13;;;2.93;;
819;SDS011;392;48.838;2.322;2023-05-10T05:52:05;3.20;;;2.63;;
819;SDS011;392;48.838;2.322;2023-05-10T05:54:34;3.20;;;2.80;;
819;SDS011;392;48.838;2.322;2023-05-10T05:57:01;2.50;;;2.30;;
819;SDS011;392;48.838;2.322;2023-05-10T05:59:29;4.73;;;2.73;;
819;SDS011;392;48.838;2.322;2023-05-10T06:01:56;3.07;;;2.87;;
819;SDS011;392;48.838;2.322;2023-05-10T06:04:24;3.33;;;2.50;;
819;SDS011;392;48.838;2.322;2023-05-10T06:06:51;2.90;;;2.70;;
819;SDS011;392;48.838;2.322;2023-05-10T06:09:19;4.37;;;3.23;;
819;SDS011;392;48.838;2.322;2023-05-10T06:11:47;5.13;;;3.43;;
819;SDS011;392;48.838;2.322;2023-05-10T06:14:15;4.00;;;3.60;;
819;SDS011;392;48.838;2.322;2023-05-10T06:16:42;4.27;;;3.87;;
819;SDS011;392;48.838;2.322;2023-05-10T06:19:09;3.87;;;3.37;;
819;SDS011;392;48.838;2.322;2023-05-10T06:21:36;3.23;;;3.03;;
819;SDS011;392;48.838;2.322;2023-05-10T06:24:04;4.13;;;3.77;;
819;SDS011;392;48.838;2.322;2023-05-10T06:26:32;5.37;;;4.87;;
819;SDS011;392;48.838;2.322;2023-05-10T06:29:01;4.10;;;3.80;;
819;SDS011;392;48.838;2.322;2023-05-10T06:31:29;3.57;;;3.27;;
819;SDS011;392;48.838;2.322;2023-05-10T06:33:56;4.40;;;3.23;;
819;SDS011;392;48.838;2.322;2023-05-10T06:36:23;4.13;;;3.77;;
819;SDS011;392;48.838;2.322;2023-05-10T06:38:51;4.20;;;3.80;;
819;SDS011;392;48.838;2.322;2023-05-10T06:41:19;4.40;;;3.50;;
819;SDS011;392;48.838;2.322;2023-05-10T06:43:46;4.27;;;3.90;;
819;SDS011;392;48.838;2.322;2023-05-10T06:46:15;4.13;;;3.40;;
819;SDS011;392;48.838;2.322;2023-05-10T06:48:42;4.50;;;3.23;;
819;SDS011;392;48.838;2.322;2023-05-10T06:51:10;3.47;;;3.17;;
819;SDS011;392;48.838;2.322;2023-05-10T06:53:37;5.10;;;4.30;;
819;SDS011;392;48.838;2.322;2023-05-10T06:56:04;4.03;;;3.57;;
819;SDS011;392;48.838;2.322;2023-05-10T06:58:32;4.03;;;3.50;;
819;SDS011;392;48.838;2.322;2023-05-10T07:01:02;4.63;;;4.23;;
819;SDS011;392;48.838;2.322;2023-05-10T07:03:32;3.67;;;3.47;;
819;SDS011;392;48.838;2.322;2023-05-10T07:06:00;5.97;;;4.00;;
819;SDS011;392;48.838;2.322;2023-05-10T07:08:29;4.17;;;3.90;;
819;SDS011;392;48.838;2.322;2023-05-10T07:11:00;5.27;;;3.37;;
819;SDS011;392;48.838;2.322;2023-05-10T07:13:29;3.40;;;3.10;;
819;SDS011;392;48.838;2.322;2023-05-10T07:15:57;4.23;;;3.27;;
819;SDS011;392;48.838;2.322;2023-05-10T07:18:25;4.30;;;3.90;;
819;SDS011;392;48.838;2.322;2023-05-10T07:20:54;3.50;;;3.20;;
819;SDS011;392;48.838;2.322;2023-05-10T07:23:21;3.97;;;3.67;;
819;SDS011;392;48.838;2.322;2023-05-10T07:25:49;4.10;;;3.80;;
819;SDS011;392;48.838;2.322;2023-05-10T07:28:18;4.40;;;4.03;;
819;SDS011;392;48.838;2.322;2023-05-10T07:30:45;4.90;;;4.50;;
819;SDS011;392;48.838;2.322;2023-05-10T07:33:13;4.10;;;3.80;;
819;SDS011;392;48.838;2.322;2023-05-10T07:35:41;3.87;;;3.53;;
819;SDS011;392;48.838;2.322;2023-05-10T07:38:10;3.17;;;2.97;;
819;SDS011;392;48.838;2.322;2023-05-10T07:40:38;3.10;;;2.90;;
819;SDS011;392;48.838;2.322;2023-05-10T07:43:06;3.47;;;3.20;;
819;SDS011;392;48.838;2.322;2023-05-10T07:45:33;3.57;;;3.27;;
819;SDS011;392;48.838;2.322;2023-05-10T07:48:01;3.57;;;3.37;;
819;SDS011;392;48.838;2.322;2023-05-10T07:50:28;4.20;;;3.83;;
819;SDS011;392;48.838;2.322;2023-05-10T07:52:55;3.53;;;3.23;;
819;SDS011;392;48.838;2.322;2023-05-10T07:55:24;3.37;;;3.17;;
819;SDS011;392;48.838;2.322;2023-05-10T07:57:51;3.73;;;3.50;;
819;SDS011;392;48.838;2.322;2023-05-10T08:00:19;3.43;;;3.23;;
819;SDS011;392;48.838;2.322;2023-05-10T08:02:47;4.13;;;3.80;;
819;SDS011;392;48.838;2.322;2023-05-10T08:05:14;4.00;;;3.70;;
819;SDS011;392;48.838;2.322;2023-05-10T08:07:41;4.87;;;4.37;;
819;SDS011;392;48.838;2.322;2023-05-10T08:10:09;5.50;;;4.70;;
819;SDS011;392;48.838;2.322;2023-05-10T08:12:38;4.30;;;3.83;;
819;SDS011;392;48.838;2.322;2023-05-10T08:15:06;4.97;;;4.57;;
819;SDS011;392;48.838;2.322;2023-05-10T08:17:35;4.30;;;4.00;;
819;SDS011;392;48.838;2.322;2023-05-10T08:20:02;4.50;;;4.10;;
819;SDS011;392;48.838;2.322;2023-05-10T08:22:31;4.30;;;4.00;;
819;SDS011;392;48.838;2.322;2023-05-10T08:24:58;5.00;;;3.97;;
819;SDS011;392;48.838;2.322;2023-05-10T08:27:25;3.80;;;3.60;;
819;SDS011;392;48.838;2.322;2023-05-10T08:29:54;3.57;;;3.37;;
819;SDS011;392;48.838;2.322;2023-05-10T08:32:21;4.60;;;3.67;;
819;SDS011;392;48.838;2.322;2023-05-10T08:34:48;3.47;;;3.20;;
819;SDS011;392;48.838;2.322;2023-05-10T08:37:15;3.50;;;3.20;;
819;SDS011;392;48.838;2.322;2023-05-10T08:39:43;3.30;;;3.10;;
819;SDS011;392;48.838;2.322;2023-05-10T08:42:11;3.90;;;3.50;;
819;SDS011;392;48.838;2.322;2023-05-10T08:44:40;3.10;;;2.90;;
819;SDS011;392;48.838;2.322;2023-05-10T08:47:10;3.90;;;3.60;;
819;SDS011;392;48.838;2.322;2023-05-10T08:49:39;3.40;;;3.20;;
819;SDS011;392;48.838;2.322;2023-05-10T08:52:08;3.80;;;3.00;;
819;SDS011;392;48.838;2.322;2023-05-10T08:54:39;3.40;;;3.20;;
819;SDS011;392;48.838;2.322;2023-05-10T08:57:07;4.87;;;3.83;;
819;SDS011;392;48.838;2.322;2023-05-10T08:59:35;3.27;;;2.97;;
819;SDS011;392;48.838;2.322;2023-05-10T09:02:05;4.47;;;4.13;;
819;SDS011;392;48.838;2.322;2023-05-10T09:04:34;4.00;;;3.57;;
819;SDS011;392;48.838;2.322;2023-05-10T09:07:01;5.10;;;3.60;;
819;SDS011;392;48.838;2.322;2023-05-10T09:09:28;5.77;;;5.03;;
819;SDS011;392;48.838;2.322;2023-05-10T09:11:56;5.47;;;4.60;;
819;SDS011;392;48.838;2.322;2023-05-10T09:14:24;5.50;;;3.80;;
819;SDS011;392;48.838;2.322;2023-05-10T09:16:52;5.03;;;4.37;;
819;SDS011;392;48.838;2.322;2023-05-10T09:19:20;6.30;;;4.53;;
819;SDS011;392;48.838;2.322;2023-05-10T09:21:49;4.33;;;3.80;;
819;SDS011;392;48.838;2.322;2023-05-10T09:24:16;6.70;;;4.70;;
819;SDS011;392;48.838;2.322;2023-05-10T09:26:45;7.97;;;4.90;;
819;SDS011;392;48.838;2.322;2023-05-10T09:29:14;7.43;;;5.40;;
819;SDS011;392;48.838;2.322;2023-05-10T09:31:45;5.60;;;5.00;;
819;SDS011;392;48.838;2.322;2023-05-10T09:34:17;44.67;;;30.40;;
819;SDS011;392;48.838;2.322;2023-05-10T09:36:54;7.03;;;6.07;;
819;SDS011;392;48.838;2.322;2023-05-10T09:39:32;7.60;;;5.50;;
819;SDS011;392;48.838;2.322;2023-05-10T09:42:01;7.63;;;5.27;;
819;SDS011;392;48.838;2.322;2023-05-10T09:44:30;10.40;;;4.80;;
819;SDS011;392;48.838;2.322;2023-05-10T09:46:58;7.30;;;4.93;;
819;SDS011;392;48.838;2.322;2023-05-10T09:49:26;7.87;;;4.50;;
819;SDS011;392;48.838;2.322;2023-05-10T09:52:01;7.87;;;4.70;;
819;SDS011;392;48.838;2.322;2023-05-10T09:54:31;9.13;;;4.93;;
819;SDS011;392;48.838;2.322;2023-05-10T09:57:00;8.60;;;5.63;;
819;SDS011;392;48.838;2.322;2023-05-10T09:59:28;8.33;;;4.83;;
819;SDS011;392;48.838;2.322;2023-05-10T10:01:56;9.30;;;4.80;;
819;SDS011;392;48.838;2.322;2023-05-10T10:04:26;8.53;;;4.73;;
819;SDS011;392;48.838;2.322;2023-05-10T10:07:02;9.77;;;5.50;;
819;SDS011;392;48.838;2.322;2023-05-10T10:09:31;9.17;;;5.43;;
819;SDS011;392;48.838;2.322;2023-05-10T10:12:00;12.50;;;5.80;;
819;SDS011;392;48.838;2.322;2023-05-10T10:14:29;10.17;;;6.20;;
819;SDS011;392;48.838;2.322;2023-05-10T10:16:56;11.67;;;6.07;;
819;SDS011;392;48.838;2.322;2023-05-10T10:19:27;14.33;;;7.17;;
819;SDS011;392;48.838;2.322;2023-05-10T10:21:55;9.63;;;5.70;;
819;SDS011;392;48.838;2.322;2023-05-10T10:24:24;8.00;;;5.80;;
819;SDS011;392;48.838;2.322;2023-05-10T10:26:51;9.70;;;5.70;;
819;SDS011;392;48.838;2.322;2023-05-10T10:29:23;16.77;;;7.37;;
819;SDS011;392;48.838;2.322;2023-05-10T10:32:03;11.00;;;5.67;;
819;SDS011;392;48.838;2.322;2023-05-10T10:34:38;13.70;;;6.67;;
819;SDS011;392;48.838;2.322;2023-05-10T10:37:06;10.07;;;6.07;;
819;SDS011;392;48.838;2.322;2023-05-10T10:39:35;7.20;;;5.70;;
819;SDS011;392;48.838;2.322;2023-05-10T10:42:02;12.27;;;6.70;;
819;SDS011;392;48.838;2.322;2023-05-10T10:44:34;12.50;;;6.30;;
819;SDS011;392;48.838;2.322;2023-05-10T10:47:05;9.90;;;5.80;;
819;SDS011;392;48.838;2.322;2023-05-10T10:49:42;7.47;;;5.37;;
819;SDS011;392;48.838;2.322;2023-05-10T10:52:23;9.27;;;5.90;;
819;SDS011;392;48.838;2.322;2023-05-10T10:54:59;7.23;;;6.33;;
819;SDS011;392;48.838;2.322;2023-05-10T10:57:42;7.93;;;4.97;;
819;SDS011;392;48.838;2.322;2023-05-10T11:00:18;10.00;;;5.70;;
819;SDS011;392;48.838;2.322;2023-05-10T11:02:51;7.53;;;4.60;;
819;SDS011;392;48.838;2.322;2023-05-10T11:05:24;9.30;;;5.30;;
819;SDS011;392;48.838;2.322;2023-05-10T11:08:16;8.07;;;5.90;;
819;SDS011;392;48.838;2.322;2023-05-10T11:11:01;10.20;;;5.40;;
819;SDS011;392;48.838;2.322;2023-05-10T11:13:33;9.33;;;5.20;;
819;SDS011;392;48.838;2.322;2023-05-10T11:16:15;7.03;;;5.37;;
819;SDS011;392;48.838;2.322;2023-05-10T11:21:44;6.80;;;4.43;;
819;SDS011;392;48.838;2.322;2023-05-10T11:24:14;4.33;;;3.93;;
819;SDS011;392;48.838;2.322;2023-05-10T11:26:44;7.70;;;5.50;;
819;SDS011;392;48.838;2.322;2023-05-10T11:29:12;7.57;;;4.67;;
819;SDS011;392;48.838;2.322;2023-05-10T11:31:43;5.10;;;4.60;;
819;SDS011;392;48.838;2.322;2023-05-10T11:34:12;5.87;;;4.80;;
819;SDS011;392;48.838;2.322;2023-05-10T11:36:50;7.10;;;3.97;;
819;SDS011;392;48.838;2.322;2023-05-10T11:39:19;7.17;;;5.13;;
819;SDS011;392;48.838;2.322;2023-05-10T11:41:48;6.77;;;5.60;;
819;SDS011;392;48.838;2.322;2023-05-10T11:44:16;6.07;;;5.17;;
819;SDS011;392;48.838;2.322;2023-05-10T11:46:43;5.50;;;5.00;;
819;SDS011;392;48.838;2.322;2023-05-10T11:49:10;5.50;;;5.00;;
819;SDS011;392;48.838;2.322;2023-05-10T11:51:38;5.57;;;5.03;;
819;SDS011;392;48.838;2.322;2023-05-10T11:54:08;5.40;;;5.00;;
819;SDS011;392;48.838;2.322;2023-05-10T11:56:36;5.83;;;4.83;;
819;SDS011;392;48.838;2.322;2023-05-10T11:59:06;6.87;;;4.47;;
819;SDS011;392;48.838;2.322;2023-05-10T12:01:33;6.07;;;5.13;;
819;SDS011;392;48.838;2.322;2023-05-10T12:04:02;6.67;;;4.87;;
819;SDS011;392;48.838;2.322;2023-05-10T12:06:29;5.97;;;5.57;;
819;SDS011;392;48.838;2.322;2023-05-10T12:08:59;6.70;;;6.10;;
819;SDS011;392;48.838;2.322;2023-05-10T12:11:35;6.50;;;5.87;;
819;SDS011;392;48.838;2.322;2023-05-10T12:14:07;6.30;;;5.90;;
819;SDS011;392;48.838;2.322;2023-05-10T12:16:36;6.70;;;6.23;;
819;SDS011;392;48.838;2.322;2023-05-10T12:19:03;6.73;;;6.30;;
819;SDS011;392;48.838;2.322;2023-05-10T12:21:32;7.07;;;6.40;;
819;SDS011;392;48.838;2.322;2023-05-10T12:24:00;6.70;;;6.20;;
819;SDS011;392;48.838;2.322;2023-05-10T12:26:30;6.80;;;6.13;;
819;SDS011;392;48.838;2.322;2023-05-10T12:29:13;6.77;;;6.10;;
819;SDS011;392;48.838;2.322;2023-05-10T12:31:49;6.50;;;5.80;;
819;SDS011;392;48.838;2.322;2023-05-10T12:34:25;6.27;;;5.30;;
819;SDS011;392;48.838;2.322;2023-05-10T12:36:53;4.27;;;3.97;;
819;SDS011;392;48.838;2.322;2023-05-10T12:39:21;4.17;;;3.87;;
819;SDS011;392;48.838;2.322;2023-05-10T12:41:50;4.70;;;4.30;;
819;SDS011;392;48.838;2.322;2023-05-10T12:44:19;5.73;;;5.30;;
819;SDS011;392;48.838;2.322;2023-05-10T12:46:46;5.97;;;5.60;;
819;SDS011;392;48.838;2.322;2023-05-10T12:49:13;10.00;;;6.80;;
819;SDS011;392;48.838;2.322;2023-05-10T12:51:42;5.77;;;5.33;;
819;SDS011;392;48.838;2.322;2023-05-10T12:54:09;5.70;;;5.30;;
819;SDS011;392;48.838;2.322;2023-05-10T12:56:36;6.10;;;5.60;;
819;SDS011;392;48.838;2.322;2023-05-10T12:59:06;6.10;;;5.70;;
819;SDS011;392;48.838;2.322;2023-05-10T13:01:34;5.97;;;5.47;;
819;SDS011;392;48.838;2.322;2023-05-10T13:04:02;5.97;;;5.37;;
819;SDS011;392;48.838;2.322;2023-05-10T13:06:29;5.70;;;5.03;;
819;SDS011;392;48.838;2.322;2023-05-10T13:08:57;5.63;;;5.23;;
819;SDS011;392;48.838;2.322;2023-05-10T13:11:24;6.00;;;4.97;;
819;SDS011;392;48.838;2.322;2023-05-10T13:13:51;5.07;;;4.67;;
819;SDS011;392;48.838;2.322;2023-05-10T13:16:19;5.13;;;4.77;;
819;SDS011;392;48.838;2.322;2023-05-10T13:18:47;5.60;;;5.20;;
819;SDS011;392;48.838;2.322;2023-05-10T13:21:15;4.90;;;4.60;;
819;SDS011;392;48.838;2.322;2023-05-10T13:23:42;5.40;;;4.90;;
819;SDS011;392;48.838;2.322;2023-05-10T13:26:09;5.97;;;4.80;;
819;SDS011;392;48.838;2.322;2023-05-10T13:28:37;6.37;;;5.07;;
819;SDS011;392;48.838;2.322;2023-05-10T13:31:04;5.17;;;4.80;;
819;SDS011;392;48.838;2.322;2023-05-10T13:33:32;5.67;;;5.07;;
819;SDS011;392;48.838;2.322;2023-05-10T13:36:00;8.60;;;6.13;;
819;SDS011;392;48.838;2.322;2023-05-10T13:38:27;6.70;;;4.70;;
819;SDS011;392;48.838;2.322;2023-05-10T13:40:55;6.90;;;6.40;;
819;SDS011;392;48.838;2.322;2023-05-10T13:43:23;6.03;;;5.43;;
819;SDS011;392;48.838;2.322;2023-05-10T13:45:50;5.60;;;5.10;;
819;SDS011;392;48.838;2.322;2023-05-10T13:48:18;6.20;;;5.20;;
819;SDS011;392;48.838;2.322;2023-05-10T13:50:45;6.10;;;5.37;;
819;SDS011;392;48.838;2.322;2023-05-10T13:53:14;6.90;;;5.93;;
819;SDS011;392;48.838;2.322;2023-05-10T13:55:42;5.60;;;5.10;;
819;SDS011;392;48.838;2.322;2023-05-10T13:58:09;6.70;;;5.27;;
819;SDS011;392;48.838;2.322;2023-05-10T14:00:37;5.93;;;5.43;;
819;SDS011;392;48.838;2.322;2023-05-10T14:03:04;5.73;;;5.27;;
819;SDS011;392;48.838;2.322;2023-05-10T14:05:34;6.90;;;5.27;;
819;SDS011;392;48.838;2.322;2023-05-10T14:08:01;5.13;;;4.80;;
819;SDS011;392;48.838;2.322;2023-05-10T14:10:31;6.77;;;6.07;;
819;SDS011;392;48.838;2.322;2023-05-10T14:12:58;6.10;;;5.50;;
819;SDS011;392;48.838;2.322;2023-05-10T14:15:25;6.77;;;5.57;;
819;SDS011;392;48.838;2.322;2023-05-10T14:17:53;5.90;;;5.30;;
819;SDS011;392;48.838;2.322;2023-05-10T14:20:20;6.43;;;4.97;;
819;SDS011;392;48.838;2.322;2023-05-10T14:22:48;6.53;;;5.63;;
819;SDS011;392;48.838;2.322;2023-05-10T14:25:16;7.40;;;6.70;;
819;SDS011;392;48.838;2.322;2023-05-10T14:27:45;5.73;;;4.23;;
819;SDS011;392;48.838;2.322;2023-05-10T14:30:13;4.73;;;4.30;;
819;SDS011;392;48.838;2.322;2023-05-10T14:32:41;8.37;;;5.37;;
819;SDS011;392;48.838;2.322;2023-05-10T14:35:08;5.77;;;4.17;;
819;SDS011;392;48.838;2.322;2023-05-10T14:37:36;4.07;;;3.33;;
819;SDS011;392;48.838;2.322;2023-05-10T14:40:05;3.77;;;3.47;;
819;SDS011;392;48.838;2.322;2023-05-10T14:42:34;3.83;;;3.53;;
819;SDS011;392;48.838;2.322;2023-05-10T14:45:04;3.40;;;3.00;;
819;SDS011;392;48.838;2.322;2023-05-10T14:47:38;3.67;;;3.40;;
819;SDS011;392;48.838;2.322;2023-05-10T14:50:11;3.10;;;2.90;;
819;SDS011;392;48.838;2.322;2023-05-10T14:52:38;3.70;;;3.30;;
819;SDS011;392;48.838;2.322;2023-05-10T14:55:06;3.80;;;3.50;;
819;SDS011;392;48.838;2.322;2023-05-10T14:57:35;3.30;;;3.10;;
819;SDS011;392;48.838;2.322;2023-05-10T15:00:04;4.00;;;3.63;;
819;SDS011;392;48.838;2.322;2023-05-10T15:02:33;4.43;;;3.50;;
819;SDS011;392;48.838;2.322;2023-05-10T15:05:01;5.20;;;3.70;;
819;SDS011;392;48.838;2.322;2023-05-10T15:07:28;4.40;;;3.40;;
819;SDS011;392;48.838;2.322;2023-05-10T15:09:56;4.30;;;4.00;;
819;SDS011;392;48.838;2.322;2023-05-10T15:12:24;4.13;;;3.83;;
819;SDS011;392;48.838;2.322;2023-05-10T15:14:51;4.67;;;4.10;;
819;SDS011;392;48.838;2.322;2023-05-10T15:17:20;4.37;;;3.97;;
819;SDS011;392;48.838;2.322;2023-05-10T15:19:50;4.37;;;3.53;;
819;SDS011;392;48.838;2.322;2023-05-10T15:22:17;3.77;;;3.57;;
819;SDS011;392;48.838;2.322;2023-05-10T15:24:46;4.23;;;3.90;;
819;SDS011;392;48.838;2.322;2023-05-10T15:27:14;4.13;;;3.73;;
819;SDS011;392;48.838;2.322;2023-05-10T15:29:41;4.03;;;3.73;;
819;SDS011;392;48.838;2.322;2023-05-10T15:32:09;3.97;;;3.50;;
819;SDS011;392;48.838;2.322;2023-05-10T15:34:37;5.30;;;4.60;;
819;SDS011;392;48.838;2.322;2023-05-10T15:37:07;4.17;;;3.30;;
819;SDS011;392;48.838;2.322;2023-05-10T15:39:35;3.60;;;3.30;;
819;SDS011;392;48.838;2.322;2023-05-10T15:42:03;3.23;;;3.03;;
819;SDS011;392;48.838;2.322;2023-05-10T15:44:30;3.90;;;3.60;;
819;SDS011;392;48.838;2.322;2023-05-10T15:47:00;4.80;;;3.67;;
819;SDS011;392;48.838;2.322;2023-05-10T15:49:28;3.87;;;3.67;;
819;SDS011;392;48.838;2.322;2023-05-10T15:51:58;4.57;;;3.70;;
819;SDS011;392;48.838;2.322;2023-05-10T15:54:26;3.70;;;3.40;;
819;SDS011;392;48.838;2.322;2023-05-10T15:56:54;6.07;;;5.50;;
819;SDS011;392;48.838;2.322;2023-05-10T15:59:21;4.23;;;3.87;;
819;SDS011;392;48.838;2.322;2023-05-10T16:01:49;4.53;;;4.00;;